createdAt,value
2023-04-09T00:00:45.820Z,2.34
2023-04-09T00:01:45.926Z,2.11
2023-04-09T00:02:45.875Z,2.09
2023-04-09T00:03:45.933Z,2.18
2023-04-09T00:04:45.960Z,2.33
2023-04-09T00:05:45.900Z,2.04
2023-04-09T00:06:45.930Z,2.24
2023-04-09T00:07:45.948Z,2.04
2023-04-09T00:08:45.983Z,2.02
2023-04-09T00:09:46.022Z,1.95
2023-04-09T00:10:45.981Z,2.31
2023-04-09T00:11:46.038Z,2.13
2023-04-09T00:12:46.041Z,1.97
2023-04-09T00:13:46.123Z,2.32
2023-04-09T00:14:46.092Z,1.96
2023-04-09T00:15:46.095Z,2.22
2023-04-09T00:16:46.133Z,2.05
2023-04-09T00:17:46.179Z,2.29
2023-04-09T00:18:46.193Z,1.93
2023-04-09T00:19:46.147Z,1.98
2023-04-09T00:20:46.175Z,2.15
2023-04-09T00:21:46.225Z,2.09
2023-04-09T00:22:46.253Z,2.56
2023-04-09T00:23:46.297Z,2.19
2023-04-09T00:24:46.318Z,2.34
2023-04-09T00:25:46.314Z,1.95
2023-04-09T00:26:46.321Z,2.48
2023-04-09T00:27:46.350Z,1.86
2023-04-09T00:28:46.388Z,2.26
2023-04-09T00:29:46.413Z,2.26
2023-04-09T00:30:46.415Z,1.96
2023-04-09T00:31:46.422Z,2.11
2023-04-09T00:32:46.465Z,2.38
2023-04-09T00:33:46.447Z,2.25
2023-04-09T00:34:46.500Z,2.28
2023-04-09T00:35:46.510Z,2.13
2023-04-09T00:36:46.503Z,2.51
2023-04-09T00:37:46.532Z,2.54
2023-04-09T00:38:46.589Z,2.60
2023-04-09T00:39:46.592Z,2.11
2023-04-09T00:40:46.668Z,2.15
2023-04-09T00:41:46.586Z,2.31
2023-04-09T00:42:46.597Z,2.46
2023-04-09T00:43:46.608Z,2.26
2023-04-09T00:44:46.613Z,2.37
2023-04-09T00:45:46.689Z,2.40
2023-04-09T00:46:46.631Z,2.63
2023-04-09T00:47:46.739Z,2.39
2023-04-09T00:48:46.648Z,2.61
2023-04-09T00:49:46.709Z,2.30
2023-04-09T00:50:46.701Z,2.58
2023-04-09T00:51:46.692Z,2.36
2023-04-09T00:52:46.730Z,2.33
2023-04-09T00:53:46.737Z,2.11
2023-04-09T00:54:46.765Z,2.30
2023-04-09T00:55:46.789Z,2.22
2023-04-09T00:56:46.786Z,2.61
2023-04-09T00:57:46.806Z,2.54
2023-04-09T00:58:46.820Z,2.90
2023-04-09T00:59:46.807Z,2.20
2023-04-09T01:00:46.844Z,2.37
2023-04-09T01:01:46.829Z,2.29
2023-04-09T01:02:47.182Z,1.96
2023-04-09T01:03:46.978Z,2.42
2023-04-09T01:04:46.905Z,2.38
2023-04-09T01:05:46.942Z,2.45
2023-04-09T01:06:46.930Z,2.43
2023-04-09T01:07:46.961Z,2.71
2023-04-09T01:08:47.002Z,2.27
2023-04-09T01:09:46.995Z,2.33
2023-04-09T01:10:47.025Z,2.18
2023-04-09T01:11:47.065Z,2.76
2023-04-09T01:12:47.064Z,2.60
2023-04-09T01:13:47.157Z,2.73
2023-04-09T01:14:47.224Z,2.45
2023-04-09T01:15:47.186Z,2.77
2023-04-09T01:16:47.238Z,2.58
2023-04-09T01:17:47.196Z,2.11
2023-04-09T01:18:47.205Z,2.67
2023-04-09T01:19:47.228Z,2.21
2023-04-09T01:20:47.221Z,2.62
2023-04-09T01:21:47.259Z,2.87
2023-04-09T01:22:47.269Z,2.56
2023-04-09T01:23:47.368Z,2.23
2023-04-09T01:24:47.372Z,2.87
2023-04-09T01:25:47.337Z,2.35
2023-04-09T01:26:47.330Z,2.50
2023-04-09T01:27:47.979Z,2.31
2023-04-09T01:28:47.322Z,2.53
2023-04-09T01:29:47.359Z,2.28
2023-04-09T01:30:47.505Z,2.41
2023-04-09T01:31:47.345Z,2.52
2023-04-09T01:32:47.438Z,2.30
2023-04-09T01:33:47.415Z,2.52
2023-04-09T01:34:47.446Z,2.71
2023-04-09T01:35:47.431Z,2.50
2023-04-09T01:36:47.448Z,2.76
2023-04-09T01:37:47.492Z,2.62
2023-04-09T01:38:47.509Z,2.51
2023-04-09T01:39:47.503Z,2.34
2023-04-09T01:40:47.557Z,2.36
2023-04-09T01:41:47.563Z,2.92
2023-04-09T01:42:47.580Z,2.43
2023-04-09T01:43:47.610Z,2.35
2023-04-09T01:44:47.593Z,2.13
2023-04-09T01:45:47.638Z,2.53
2023-04-09T01:46:47.648Z,2.51
2023-04-09T01:47:47.700Z,2.50
2023-04-09T01:48:47.650Z,2.54
2023-04-09T01:49:47.672Z,2.34
2023-04-09T01:50:47.680Z,2.19
2023-04-09T01:51:47.685Z,2.50
2023-04-09T01:52:47.703Z,2.65
2023-04-09T01:53:47.733Z,2.85
2023-04-09T01:54:47.717Z,2.62
2023-04-09T01:55:47.760Z,2.79
2023-04-09T01:56:47.830Z,2.64
2023-04-09T01:57:47.853Z,2.82
2023-04-09T01:58:47.897Z,2.82
2023-04-09T01:59:47.895Z,2.50
2023-04-09T02:00:47.904Z,2.89
2023-04-09T02:01:48.153Z,2.40
2023-04-09T02:02:48.057Z,2.80
2023-04-09T02:03:48.005Z,2.68
2023-04-09T02:04:47.966Z,2.74
2023-04-09T02:05:47.954Z,3.32
2023-04-09T02:06:48.003Z,2.51
2023-04-09T02:07:47.990Z,2.38
2023-04-09T02:08:48.019Z,2.72
2023-04-09T02:09:48.063Z,2.52
2023-04-09T02:10:48.214Z,2.69
2023-04-09T02:11:48.074Z,2.55
2023-04-09T02:12:48.127Z,2.25
2023-04-09T02:13:48.200Z,2.39
2023-04-09T02:14:48.158Z,2.38
2023-04-09T02:15:48.228Z,2.54
2023-04-09T02:16:48.242Z,2.79
2023-04-09T02:17:48.250Z,3.17
2023-04-09T02:18:48.270Z,2.41
2023-04-09T02:19:48.300Z,2.59
2023-04-09T02:20:48.318Z,2.85
2023-04-09T02:21:48.349Z,2.55
2023-04-09T02:22:48.381Z,2.44
2023-04-09T02:23:48.411Z,2.94
2023-04-09T02:24:48.439Z,2.65
2023-04-09T02:25:48.415Z,2.69
2023-04-09T02:26:48.409Z,2.40
2023-04-09T02:27:48.459Z,2.25
2023-04-09T02:28:48.481Z,2.81
2023-04-09T02:29:48.482Z,3.17
2023-04-09T02:30:48.557Z,2.65
2023-04-09T02:31:48.534Z,2.92
2023-04-09T02:32:48.634Z,2.28
2023-04-09T02:33:48.575Z,2.90
2023-04-09T02:34:48.608Z,2.78
2023-04-09T02:35:48.686Z,2.57
2023-04-09T02:36:48.665Z,2.62
2023-04-09T02:37:48.631Z,2.73
2023-04-09T02:38:48.692Z,2.95
2023-04-09T02:39:48.701Z,2.74
2023-04-09T02:40:48.688Z,2.57
2023-04-09T02:41:48.727Z,2.89
2023-04-09T02:42:48.776Z,2.79
2023-04-09T02:43:48.760Z,2.54
2023-04-09T02:44:48.783Z,2.97
2023-04-09T02:45:48.828Z,2.84
2023-04-09T02:46:48.951Z,2.78
2023-04-09T02:47:48.884Z,3.04
2023-04-09T02:48:49.095Z,3.10
2023-04-09T02:49:48.883Z,2.68
2023-04-09T02:50:48.930Z,2.87
2023-04-09T02:51:48.941Z,2.97
2023-04-09T02:52:48.926Z,2.74
2023-04-09T02:53:48.962Z,3.22
2023-04-09T02:54:49.019Z,2.63
2023-04-09T02:55:49.028Z,2.66
2023-04-09T02:56:49.041Z,2.41
2023-04-09T02:57:49.061Z,2.93
2023-04-09T02:58:49.087Z,2.78
2023-04-09T02:59:49.101Z,2.62
2023-04-09T03:00:49.152Z,2.89
2023-04-09T03:01:49.323Z,2.59
2023-04-09T03:02:49.269Z,2.71
2023-04-09T03:03:49.293Z,3.10
2023-04-09T03:04:49.273Z,2.54
2023-04-09T03:05:49.271Z,2.76
2023-04-09T03:06:49.308Z,2.71
2023-04-09T03:07:49.315Z,3.00
2023-04-09T03:08:49.458Z,3.07
2023-04-09T03:09:49.362Z,2.78
2023-04-09T03:10:49.388Z,3.00
2023-04-09T03:11:49.382Z,2.53
2023-04-09T03:12:49.399Z,2.64
2023-04-09T03:13:49.428Z,2.95
2023-04-09T03:14:49.467Z,2.60
2023-04-09T03:15:49.574Z,2.88
2023-04-09T03:16:49.511Z,2.90
2023-04-09T03:17:49.549Z,2.94
2023-04-09T03:18:49.674Z,3.31
2023-04-09T03:19:49.574Z,2.92
2023-04-09T03:20:49.591Z,3.20
2023-04-09T03:21:49.593Z,2.75
2023-04-09T03:22:49.667Z,2.95
2023-04-09T03:23:49.647Z,2.60
2023-04-09T03:24:49.645Z,3.13
2023-04-09T03:25:49.689Z,3.32
2023-04-09T03:26:49.827Z,2.65
2023-04-09T03:27:49.735Z,3.29
2023-04-09T03:28:50.021Z,2.57
2023-04-09T03:29:49.818Z,2.88
2023-04-09T03:30:49.794Z,2.99
2023-04-09T03:31:49.826Z,2.99
2023-04-09T03:32:49.919Z,2.64
2023-04-09T03:33:49.853Z,2.52
2023-04-09T03:34:49.903Z,2.95
2023-04-09T03:35:49.909Z,3.07
2023-04-09T03:36:49.951Z,3.41
2023-04-09T03:37:49.960Z,3.21
2023-04-09T03:38:50.290Z,3.18
2023-04-09T03:39:50.050Z,2.52
2023-04-09T03:40:50.037Z,2.78
2023-04-09T03:41:50.053Z,3.29
2023-04-09T03:42:50.097Z,3.30
2023-04-09T03:43:50.148Z,2.70
2023-04-09T03:44:50.154Z,2.66
2023-04-09T03:45:50.173Z,2.95
2023-04-09T03:46:50.234Z,3.35
2023-04-09T03:47:50.246Z,2.66
2023-04-09T03:48:50.505Z,3.00
2023-04-09T03:49:50.294Z,2.70
2023-04-09T03:50:50.307Z,2.83
2023-04-09T03:51:50.342Z,2.93
2023-04-09T03:52:50.394Z,2.70
2023-04-09T03:53:50.415Z,3.04
2023-04-09T03:54:50.468Z,2.80
2023-04-09T03:55:50.442Z,2.86
2023-04-09T03:56:50.510Z,2.97
2023-04-09T03:57:50.548Z,2.97
2023-04-09T03:58:50.820Z,3.04
2023-04-09T03:59:50.565Z,3.00
2023-04-09T04:00:50.542Z,2.95
2023-04-09T04:01:51.649Z,2.98
2023-04-09T04:02:50.815Z,2.97
2023-04-09T04:03:50.700Z,3.09
2023-04-09T04:04:50.739Z,2.61
2023-04-09T04:05:50.657Z,2.86
2023-04-09T04:06:50.702Z,3.16
2023-04-09T04:07:50.721Z,2.82
2023-04-09T04:08:50.987Z,2.79
2023-04-09T04:09:50.755Z,3.10
2023-04-09T04:10:50.771Z,3.33
2023-04-09T04:11:50.780Z,3.06
2023-04-09T04:12:50.862Z,2.70
2023-04-09T04:13:50.792Z,2.91
2023-04-09T04:14:50.818Z,3.16
2023-04-09T04:15:50.859Z,3.07
2023-04-09T04:16:50.851Z,3.14
2023-04-09T04:17:50.896Z,2.53
2023-04-09T04:18:51.316Z,3.24
2023-04-09T04:19:50.882Z,2.92
2023-04-09T04:20:50.913Z,3.18
2023-04-09T04:21:50.927Z,2.97
2023-04-09T04:22:50.930Z,2.85
2023-04-09T04:23:50.914Z,3.02
2023-04-09T04:24:50.903Z,3.14
2023-04-09T04:25:50.902Z,2.69
2023-04-09T04:26:50.931Z,2.60
2023-04-09T04:27:50.978Z,2.97
2023-04-09T04:28:51.370Z,2.56
2023-04-09T04:29:50.981Z,3.00
2023-04-09T04:30:51.040Z,2.86
2023-04-09T04:31:51.069Z,2.97
2023-04-09T04:32:51.054Z,3.22
2023-04-09T04:33:51.085Z,2.72
2023-04-09T04:34:51.111Z,2.86
2023-04-09T04:35:51.177Z,3.01
2023-04-09T04:36:51.131Z,3.11
2023-04-09T04:37:51.145Z,3.37
2023-04-09T04:38:51.334Z,2.93
2023-04-09T04:39:51.186Z,2.87
2023-04-09T04:40:51.155Z,2.74
2023-04-09T04:41:51.202Z,2.72
2023-04-09T04:42:51.245Z,2.66
2023-04-09T04:43:51.242Z,2.88
2023-04-09T04:44:51.306Z,2.83
2023-04-09T04:45:53.505Z,2.71
2023-04-09T04:46:51.347Z,3.29
2023-04-09T04:47:51.419Z,3.12
2023-04-09T04:48:51.554Z,3.04
2023-04-09T04:49:51.406Z,2.87
2023-04-09T04:50:51.423Z,2.71
2023-04-09T04:51:51.393Z,3.15
2023-04-09T04:52:51.447Z,3.25
2023-04-09T04:53:51.430Z,2.82
2023-04-09T04:54:51.443Z,3.24
2023-04-09T04:55:51.462Z,2.56
2023-04-09T04:56:51.485Z,2.90
2023-04-09T04:57:51.492Z,3.02
2023-04-09T04:58:51.786Z,2.89
2023-04-09T04:59:51.536Z,3.10
2023-04-09T05:00:51.569Z,2.59
2023-04-09T05:01:51.619Z,3.54
2023-04-09T05:02:51.842Z,3.12
2023-04-09T05:03:51.711Z,3.08
2023-04-09T05:04:51.615Z,2.87
2023-04-09T05:05:51.653Z,2.64
2023-04-09T05:06:51.641Z,2.73
2023-04-09T05:07:51.649Z,2.95
2023-04-09T05:08:52.018Z,3.09
2023-04-09T05:09:51.703Z,3.13
2023-04-09T05:10:51.712Z,2.69
2023-04-09T05:11:51.755Z,2.69
2023-04-09T05:12:51.829Z,3.00
2023-04-09T05:13:51.836Z,2.90
2023-04-09T05:14:51.873Z,2.84
2023-04-09T05:15:51.880Z,2.75
2023-04-09T05:16:51.972Z,3.14
2023-04-09T05:17:51.966Z,2.72
2023-04-09T05:18:52.280Z,2.77
2023-04-09T05:19:51.952Z,2.73
2023-04-09T05:20:51.979Z,2.95
2023-04-09T05:21:52.028Z,3.05
2023-04-09T05:22:52.141Z,2.52
2023-04-09T05:23:52.060Z,3.02
2023-04-09T05:24:52.082Z,2.66
2023-04-09T05:25:52.065Z,2.33
2023-04-09T05:26:52.078Z,3.07
2023-04-09T05:27:52.191Z,3.00
2023-04-09T05:28:52.320Z,2.59
2023-04-09T05:29:52.112Z,2.58
2023-04-09T05:30:52.204Z,2.56
2023-04-09T05:31:52.178Z,2.99
2023-04-09T05:32:52.259Z,2.75
2023-04-09T05:33:52.210Z,2.76
2023-04-09T05:34:52.201Z,2.57
2023-04-09T05:35:52.247Z,2.95
2023-04-09T05:36:52.237Z,2.31
2023-04-09T05:37:52.255Z,2.66
2023-04-09T05:38:52.618Z,2.69
2023-04-09T05:39:52.242Z,2.85
2023-04-09T05:40:52.295Z,2.77
2023-04-09T05:41:52.334Z,2.94
2023-04-09T05:42:52.312Z,2.49
2023-04-09T05:43:52.511Z,3.21
2023-04-09T05:44:52.311Z,2.75
2023-04-09T05:45:52.350Z,2.80
2023-04-09T05:46:52.348Z,2.79
2023-04-09T05:47:52.436Z,2.34
2023-04-09T05:48:52.795Z,2.40
2023-04-09T05:49:52.471Z,2.85
2023-04-09T05:50:55.203Z,2.68
2023-04-09T05:51:52.464Z,2.53
2023-04-09T05:52:52.447Z,2.93
2023-04-09T05:53:52.654Z,2.26
2023-04-09T05:54:52.374Z,3.28
2023-04-09T05:55:52.387Z,2.48
2023-04-09T05:56:52.378Z,2.40
2023-04-09T05:57:52.320Z,2.63
2023-04-09T05:58:52.301Z,3.07
2023-04-09T05:59:52.357Z,2.38
2023-04-09T06:00:52.224Z,2.48
2023-04-09T06:01:52.282Z,3.05
2023-04-09T06:02:52.211Z,2.47
2023-04-09T06:03:53.981Z,2.68
2023-04-09T06:04:52.202Z,2.69
2023-04-09T06:05:52.091Z,2.56
2023-04-09T06:06:52.038Z,2.79
2023-04-09T06:07:52.033Z,2.70
2023-04-09T06:08:52.016Z,2.53
2023-04-09T06:09:51.970Z,2.26
2023-04-09T06:10:51.960Z,2.69
2023-04-09T06:11:51.945Z,2.95
2023-04-09T06:12:51.887Z,2.55
2023-04-09T06:13:52.073Z,2.32
2023-04-09T06:14:51.894Z,2.16
2023-04-09T06:15:51.864Z,2.56
2023-04-09T06:16:51.808Z,2.60
2023-04-09T06:17:51.800Z,2.54
2023-04-09T06:18:51.762Z,2.71
2023-04-09T06:19:51.736Z,2.75
2023-04-09T06:20:51.714Z,2.43
2023-04-09T06:21:51.697Z,2.34
2023-04-09T06:22:51.660Z,2.43
2023-04-09T06:23:51.954Z,2.64
2023-04-09T06:24:51.636Z,2.59
2023-04-09T06:25:51.591Z,2.69
2023-04-09T06:26:51.565Z,2.73
2023-04-09T06:27:51.542Z,2.61
2023-04-09T06:28:51.509Z,2.53
2023-04-09T06:29:51.534Z,2.72
2023-04-09T06:30:51.500Z,2.46
2023-04-09T06:31:51.453Z,2.60
2023-04-09T06:32:54.910Z,2.50
2023-04-09T06:33:51.816Z,2.91
2023-04-09T06:34:51.421Z,2.84
2023-04-09T06:35:51.427Z,2.80
2023-04-09T06:36:51.323Z,2.46
2023-04-09T06:37:51.321Z,2.81
2023-04-09T06:38:51.286Z,2.36
2023-04-09T06:40:00.477Z,2.62
2023-04-09T06:40:52.245Z,2.52
2023-04-09T06:41:51.222Z,2.63
2023-04-09T06:42:51.220Z,2.74
2023-04-09T06:43:51.337Z,2.49
2023-04-09T06:44:51.136Z,2.47
2023-04-09T06:45:51.125Z,2.74
2023-04-09T06:46:51.138Z,2.79
2023-04-09T06:47:51.154Z,2.47
2023-04-09T06:48:51.052Z,2.47
2023-04-09T06:49:51.225Z,2.13
2023-04-09T06:50:51.018Z,2.26
2023-04-09T06:51:50.985Z,1.92
2023-04-09T06:52:51.005Z,2.31
2023-04-09T06:53:51.286Z,2.93
2023-04-09T06:54:51.046Z,2.57
2023-04-09T06:55:51.058Z,2.44
2023-04-09T06:56:51.057Z,2.47
2023-04-09T06:57:51.103Z,2.35
2023-04-09T06:58:51.173Z,2.91
2023-04-09T06:59:51.176Z,2.54
2023-04-09T07:00:51.190Z,2.24
2023-04-09T07:01:53.308Z,2.32
2023-04-09T07:02:51.332Z,2.26
2023-04-09T07:03:51.415Z,2.18
2023-04-09T07:04:51.324Z,2.37
2023-04-09T07:05:51.153Z,2.49
2023-04-09T07:06:51.105Z,2.32
2023-04-09T07:07:51.059Z,2.62
2023-04-09T07:08:51.278Z,2.55
2023-04-09T07:09:51.015Z,2.41
2023-04-09T07:10:50.999Z,2.45
2023-04-09T07:11:51.015Z,2.44
2023-04-09T07:12:50.982Z,2.48
2023-04-09T07:13:51.181Z,2.35
2023-04-09T07:14:50.913Z,2.87
2023-04-09T07:15:50.890Z,2.49
2023-04-09T07:16:50.874Z,2.37
2023-04-09T07:17:50.891Z,2.16
2023-04-09T07:18:50.850Z,2.29
2023-04-09T07:19:50.804Z,2.50
2023-04-09T07:20:50.949Z,2.52
2023-04-09T07:21:50.786Z,2.49
2023-04-09T07:22:50.799Z,2.67
2023-04-09T07:23:51.232Z,2.87
2023-04-09T07:24:50.740Z,3.14
2023-04-09T07:25:50.729Z,2.45
2023-04-09T07:26:52.094Z,2.53
2023-04-09T07:27:50.646Z,2.82
2023-04-09T07:28:50.643Z,2.35
2023-04-09T07:29:50.612Z,2.29
2023-04-09T07:30:50.597Z,2.81
2023-04-09T07:31:50.696Z,2.10
2023-04-09T07:32:50.591Z,2.35
2023-04-09T07:33:50.974Z,2.64
2023-04-09T07:34:50.445Z,2.28
2023-04-09T07:35:50.463Z,2.27
2023-04-09T07:36:50.449Z,2.37
2023-04-09T07:37:50.474Z,2.61
2023-04-09T07:38:50.517Z,2.31
2023-04-09T07:39:50.528Z,2.00
2023-04-09T07:40:50.539Z,2.52
2023-04-09T07:41:50.586Z,2.48
2023-04-09T07:42:50.584Z,1.98
2023-04-09T07:43:50.610Z,2.38
2023-04-09T07:44:50.597Z,2.85
2023-04-09T07:45:50.635Z,2.63
2023-04-09T07:46:50.709Z,2.58
2023-04-09T07:47:50.877Z,2.46
2023-04-09T07:48:50.940Z,2.57
2023-04-09T07:49:50.710Z,2.28
2023-04-09T07:50:50.719Z,2.61
2023-04-09T07:51:50.711Z,2.68
2023-04-09T07:52:50.772Z,2.62
2023-04-09T07:53:50.790Z,2.47
2023-04-09T07:54:50.775Z,2.40
2023-04-09T07:55:50.779Z,2.42
2023-04-09T07:56:50.822Z,2.23
2023-04-09T07:57:50.816Z,2.70
2023-04-09T07:58:51.019Z,2.93
2023-04-09T07:59:50.900Z,2.35
2023-04-09T08:00:50.918Z,2.04
2023-04-09T08:01:51.052Z,2.43
2023-04-09T08:02:51.074Z,2.35
2023-04-09T08:03:51.051Z,2.83
2023-04-09T08:04:51.207Z,2.25
2023-04-09T08:05:50.941Z,2.34
2023-04-09T08:06:51.053Z,2.28
2023-04-09T08:07:50.963Z,2.55
2023-04-09T08:08:51.166Z,2.19
2023-04-09T08:09:50.983Z,2.38
2023-04-09T08:10:51.011Z,2.24
2023-04-09T08:11:51.028Z,2.20
2023-04-09T08:12:51.017Z,2.53
2023-04-09T08:13:51.037Z,2.19
2023-04-09T08:14:51.050Z,2.33
2023-04-09T08:15:51.111Z,2.23
2023-04-09T08:16:51.221Z,2.64
2023-04-09T08:17:51.162Z,2.43
2023-04-09T08:18:51.362Z,2.28
2023-04-09T08:19:51.153Z,2.44
2023-04-09T08:20:51.202Z,2.37
2023-04-09T08:21:51.196Z,2.68
2023-04-09T08:22:51.239Z,2.39
2023-04-09T08:23:51.307Z,2.20
2023-04-09T08:24:51.254Z,2.49
2023-04-09T08:25:51.274Z,2.37
2023-04-09T08:26:51.314Z,2.35
2023-04-09T08:27:51.301Z,2.18
2023-04-09T08:28:51.604Z,2.31
2023-04-09T08:29:51.398Z,2.33
2023-04-09T08:30:51.378Z,2.39
2023-04-09T08:31:51.428Z,2.53
2023-04-09T08:32:51.486Z,2.36
2023-04-09T08:33:51.462Z,2.43
2023-04-09T08:34:51.459Z,2.34
2023-04-09T08:35:51.529Z,2.60
2023-04-09T08:36:51.671Z,3.04
2023-04-09T08:37:51.553Z,2.12
2023-04-09T08:38:51.800Z,2.28
2023-04-09T08:39:51.559Z,2.40
2023-04-09T08:40:51.577Z,2.56
2023-04-09T08:41:51.613Z,2.41
2023-04-09T08:42:51.620Z,2.26
2023-04-09T08:43:57.589Z,2.66
2023-04-09T08:44:52.689Z,2.40
2023-04-09T08:45:51.680Z,2.77
2023-04-09T08:46:51.606Z,2.21
2023-04-09T08:47:51.727Z,2.63
2023-04-09T08:48:51.754Z,2.45
2023-04-09T08:49:51.533Z,2.41
2023-04-09T08:50:51.495Z,2.57
2023-04-09T08:51:51.498Z,2.45
2023-04-09T08:52:51.470Z,2.47
2023-04-09T08:53:51.415Z,2.39
2023-04-09T08:54:51.547Z,2.39
2023-04-09T08:55:51.369Z,2.34
2023-04-09T08:56:51.382Z,2.49
2023-04-09T08:57:51.392Z,2.28
2023-04-09T08:58:51.745Z,2.61
2023-04-09T08:59:51.437Z,2.20
2023-04-09T09:00:51.485Z,2.46
2023-04-09T09:01:51.528Z,2.87
2023-04-09T09:02:51.592Z,2.65
2023-04-09T09:03:51.683Z,2.22
2023-04-09T09:04:51.586Z,2.51
2023-04-09T09:05:51.582Z,2.60
2023-04-09T09:06:51.644Z,2.36
2023-04-09T09:07:51.639Z,3.02
2023-04-09T09:08:51.890Z,2.28
2023-04-09T09:09:51.706Z,1.98
2023-04-09T09:10:51.696Z,1.97
2023-04-09T09:11:51.733Z,2.25
2023-04-09T09:12:51.795Z,2.61
2023-04-09T09:13:51.767Z,2.81
2023-04-09T09:14:51.793Z,2.31
2023-04-09T09:15:51.825Z,2.28
2023-04-09T09:16:51.892Z,2.41
2023-04-09T09:17:51.869Z,2.60
2023-04-09T09:18:53.405Z,1.85
2023-04-09T09:19:51.853Z,2.26
2023-04-09T09:20:51.831Z,2.71
2023-04-09T09:21:51.790Z,2.40
2023-04-09T09:22:55.090Z,2.80
2023-04-09T09:23:51.752Z,2.48
2023-04-09T09:24:51.802Z,2.22
2023-04-09T09:25:51.729Z,2.14
2023-04-09T09:26:51.700Z,2.38
2023-04-09T09:27:51.652Z,2.42
2023-04-09T09:28:51.937Z,2.43
2023-04-09T09:29:51.627Z,2.58
2023-04-09T09:30:52.187Z,2.13
2023-04-09T09:31:51.569Z,2.25
2023-04-09T09:32:51.563Z,2.10
2023-04-09T09:33:51.497Z,2.39
2023-04-09T09:34:51.452Z,2.56
2023-04-09T09:35:51.561Z,2.19
2023-04-09T09:36:51.396Z,2.40
2023-04-09T09:37:51.387Z,2.61
2023-04-09T09:38:51.522Z,2.74
2023-04-09T09:39:51.374Z,2.36
2023-04-09T09:40:51.332Z,2.63
2023-04-09T09:41:51.272Z,2.48
2023-04-09T09:42:51.241Z,2.24
2023-04-09T09:43:51.194Z,2.38
2023-04-09T09:44:51.189Z,2.75
2023-04-09T09:45:51.227Z,2.31
2023-04-09T09:46:51.144Z,2.02
2023-04-09T09:47:51.136Z,2.58
2023-04-09T09:48:51.297Z,2.18
2023-04-09T09:49:51.033Z,2.46
2023-04-09T09:50:51.020Z,2.15
2023-04-09T09:51:50.983Z,2.46
2023-04-09T09:52:51.002Z,2.40
2023-04-09T09:53:50.947Z,2.24
2023-04-09T09:54:50.953Z,2.51
2023-04-09T09:55:50.880Z,2.30
2023-04-09T09:56:50.865Z,2.23
2023-04-09T09:57:50.865Z,2.45
2023-04-09T09:58:50.987Z,2.41
2023-04-09T09:59:50.787Z,2.60
2023-04-09T10:00:50.808Z,2.30
2023-04-09T10:01:50.866Z,2.61
2023-04-09T10:02:50.945Z,2.28
2023-04-09T10:03:50.838Z,2.30
2023-04-09T10:04:51.007Z,2.09
2023-04-09T10:05:50.920Z,2.15
2023-04-09T10:06:52.860Z,2.51
2023-04-09T10:07:51.060Z,2.22
2023-04-09T10:08:51.340Z,1.76
2023-04-09T10:09:51.094Z,2.38
2023-04-09T10:10:51.112Z,2.28
2023-04-09T10:11:51.135Z,2.43
2023-04-09T10:12:51.100Z,1.92
2023-04-09T10:13:51.146Z,2.55
2023-04-09T10:14:51.186Z,2.33
2023-04-09T10:15:51.243Z,2.28
2023-04-09T10:16:51.243Z,2.32
2023-04-09T10:17:51.317Z,2.50
2023-04-09T10:18:51.465Z,2.12
2023-04-09T10:19:51.260Z,2.07
2023-04-09T10:20:51.272Z,3.27
2023-04-09T10:21:51.318Z,2.17
2023-04-09T10:22:51.298Z,2.39
2023-04-09T10:23:51.355Z,2.23
2023-04-09T10:24:51.382Z,2.47
2023-04-09T10:25:51.336Z,2.54
2023-04-09T10:26:51.362Z,2.38
2023-04-09T10:27:51.401Z,2.18
2023-04-09T10:28:51.661Z,2.38
2023-04-09T10:29:51.418Z,2.19
2023-04-09T10:30:51.561Z,2.24
2023-04-09T10:31:51.466Z,2.59
2023-04-09T10:32:51.511Z,2.47
2023-04-09T10:33:51.527Z,2.08
2023-04-09T10:34:51.565Z,2.45
2023-04-09T10:35:51.577Z,2.34
2023-04-09T10:36:51.608Z,2.20
2023-04-09T10:37:51.610Z,2.30
2023-04-09T10:38:51.787Z,2.34
2023-04-09T10:39:51.587Z,2.61
2023-04-09T10:40:51.616Z,2.34
2023-04-09T10:41:51.702Z,2.33
2023-04-09T10:42:51.623Z,2.14
2023-04-09T10:43:51.636Z,2.41
2023-04-09T10:44:51.628Z,2.54
2023-04-09T10:45:51.646Z,2.35
2023-04-09T10:46:51.753Z,2.45
2023-04-09T10:47:51.710Z,2.26
2023-04-09T10:48:51.819Z,2.52
2023-04-09T10:49:51.724Z,2.13
2023-04-09T10:50:51.711Z,2.42
2023-04-09T10:51:51.758Z,2.42
2023-04-09T10:52:51.771Z,2.22
2023-04-09T10:53:51.817Z,2.25
2023-04-09T10:54:51.822Z,2.04
2023-04-09T10:55:51.834Z,2.23
2023-04-09T10:56:51.834Z,2.22
2023-04-09T10:57:51.902Z,2.52
2023-04-09T10:58:52.102Z,2.41
2023-04-09T10:59:51.921Z,2.20
2023-04-09T11:00:51.924Z,1.95
2023-04-09T11:01:51.990Z,2.29
2023-04-09T11:02:52.148Z,1.94
2023-04-09T11:03:52.013Z,2.06
2023-04-09T11:04:52.069Z,2.37
2023-04-09T11:05:52.018Z,2.32
2023-04-09T11:06:52.066Z,2.36
2023-04-09T11:07:52.027Z,2.00
2023-04-09T11:08:52.155Z,1.95
2023-04-09T11:09:52.099Z,2.56
2023-04-09T11:10:52.444Z,2.18
2023-04-09T11:11:52.104Z,2.60
2023-04-09T11:12:52.115Z,2.47
2023-04-09T11:13:52.156Z,2.04
2023-04-09T11:14:52.162Z,2.11
2023-04-09T11:15:52.213Z,2.06
2023-04-09T11:16:52.152Z,2.14
2023-04-09T11:17:52.332Z,2.12
2023-04-09T11:18:52.418Z,1.83
2023-04-09T11:19:52.214Z,2.24
2023-04-09T11:20:52.209Z,2.46
2023-04-09T11:21:52.277Z,2.15
2023-04-09T11:22:52.294Z,2.28
2023-04-09T11:23:52.316Z,2.31
2023-04-09T11:24:52.282Z,1.91
2023-04-09T11:25:52.359Z,1.96
2023-04-09T11:26:52.312Z,2.30
2023-04-09T11:27:52.384Z,2.20
2023-04-09T11:28:52.524Z,1.91
2023-04-09T11:29:52.408Z,2.54
2023-04-09T11:30:52.439Z,1.97
2023-04-09T11:31:52.470Z,2.21
2023-04-09T11:32:52.459Z,1.93
2023-04-09T11:33:52.470Z,2.27
2023-04-09T11:34:52.503Z,2.10
2023-04-09T11:35:52.514Z,2.16
2023-04-09T11:36:52.506Z,2.07
2023-04-09T11:37:52.568Z,2.23
2023-04-09T11:38:52.731Z,2.13
2023-04-09T11:39:52.601Z,2.13
2023-04-09T11:40:52.558Z,2.28
2023-04-09T11:41:52.577Z,2.13
2023-04-09T11:42:52.609Z,2.22
2023-04-09T11:43:52.631Z,2.29
2023-04-09T11:44:52.684Z,2.13
2023-04-09T11:45:52.673Z,2.17
2023-04-09T11:46:52.759Z,2.10
2023-04-09T11:47:52.737Z,2.35
2023-04-09T11:48:52.802Z,2.11
2023-04-09T11:49:52.764Z,1.97
2023-04-09T11:50:52.780Z,2.02
2023-04-09T11:51:52.768Z,2.05
2023-04-09T11:52:52.770Z,2.21
2023-04-09T11:53:52.792Z,2.27
2023-04-09T11:54:52.818Z,2.14
2023-04-09T11:55:52.852Z,1.92
2023-04-09T11:56:52.854Z,2.36
2023-04-09T11:57:52.873Z,2.11
2023-04-09T11:58:53.021Z,2.00
2023-04-09T11:59:52.937Z,2.37
2023-04-09T12:00:52.944Z,2.22
2023-04-09T12:01:53.066Z,2.18
2023-04-09T12:02:53.240Z,1.83
2023-04-09T12:03:53.212Z,2.16
2023-04-09T12:04:53.160Z,2.11
2023-04-09T12:05:53.106Z,2.36
2023-04-09T12:06:53.082Z,2.26
2023-04-09T12:07:56.360Z,1.99
2023-04-09T12:08:53.172Z,2.03
2023-04-09T12:09:53.072Z,1.92
2023-04-09T12:10:53.686Z,2.17
2023-04-09T12:11:53.019Z,1.90
2023-04-09T12:12:52.982Z,2.15
2023-04-09T12:13:52.977Z,2.04
2023-04-09T12:14:53.004Z,2.39
2023-04-09T12:15:52.931Z,1.82
2023-04-09T12:16:53.018Z,1.78
2023-04-09T12:17:52.883Z,2.29
2023-04-09T12:18:53.024Z,2.03
2023-04-09T12:19:52.858Z,1.58
2023-04-09T12:20:52.820Z,2.09
2023-04-09T12:21:52.782Z,1.78
2023-04-09T12:22:52.744Z,2.10
2023-04-09T12:23:52.724Z,1.88
2023-04-09T12:24:52.681Z,1.86
2023-04-09T12:25:52.635Z,1.69
2023-04-09T12:26:52.638Z,2.05
2023-04-09T12:27:52.612Z,2.08
2023-04-09T12:28:52.723Z,2.11
2023-04-09T12:29:52.540Z,2.07
2023-04-09T12:30:52.492Z,1.87
2023-04-09T12:31:52.519Z,2.00
2023-04-09T12:32:52.522Z,1.75
2023-04-09T12:33:52.430Z,1.92
2023-04-09T12:34:52.393Z,2.06
2023-04-09T12:35:52.393Z,2.29
2023-04-09T12:36:52.371Z,2.00
2023-04-09T12:37:52.319Z,2.09
2023-04-09T12:38:52.511Z,1.77
2023-04-09T12:39:52.244Z,1.93
2023-04-09T12:40:52.235Z,1.53
2023-04-09T12:41:52.230Z,1.92
2023-04-09T12:42:52.217Z,2.06
2023-04-09T12:43:52.472Z,1.99
2023-04-09T12:44:52.226Z,1.91
2023-04-09T12:45:52.319Z,1.92
2023-04-09T12:46:52.219Z,1.82
2023-04-09T12:47:52.288Z,1.67
2023-04-09T12:48:52.275Z,1.95
2023-04-09T12:49:52.315Z,1.96
2023-04-09T12:50:52.358Z,1.96
2023-04-09T12:51:52.360Z,2.04
2023-04-09T12:52:52.362Z,1.79
2023-04-09T12:53:52.597Z,2.30
2023-04-09T12:54:52.382Z,2.05
2023-04-09T12:55:52.450Z,2.15
2023-04-09T12:56:52.437Z,2.18
2023-04-09T12:57:52.449Z,2.07
2023-04-09T12:58:52.583Z,1.86
2023-04-09T12:59:52.467Z,2.01
2023-04-09T13:00:52.500Z,1.73
2023-04-09T13:01:52.599Z,2.34
2023-04-09T13:02:52.997Z,2.14
2023-04-09T13:03:52.908Z,2.22
2023-04-09T13:04:52.604Z,1.56
2023-04-09T13:05:52.668Z,2.27
2023-04-09T13:06:52.680Z,2.45
2023-04-09T13:07:52.708Z,1.95
2023-04-09T13:08:52.751Z,2.07
2023-04-09T13:09:52.713Z,1.71
2023-04-09T13:10:52.764Z,1.86
2023-04-09T13:11:52.796Z,1.62
2023-04-09T13:12:52.811Z,1.73
2023-04-09T13:13:52.994Z,1.70
2023-04-09T13:14:52.836Z,1.91
2023-04-09T13:15:52.864Z,1.85
2023-04-09T13:16:53.006Z,1.77
2023-04-09T13:17:53.023Z,1.40
2023-04-09T13:18:53.131Z,1.98